Piney, Canada
Current Conditions -  °F | °C
As of 2:54 PM on Saturday 25 Oct 2014 (Local Time) from KROX Reporting Station
Clear Clear  
Wind Chill: 57°   Ceiling: Unl
Heat Index: 57°   Visibility: 10mi
Dew Point: 27°   Wind: 16mph
Humidity: 31%   Direction: 300°WNW
Pressure: 29.97"   Gusts: 30mph
Location:  49.07°N, 95.97°W
Report Text: KROX 251954Z AUTO 30014G26KT 10SM CLR 14/M03 A2997 RMK AO2
Loading
Personal Weather Stations






























Interactive Weather Map
Tropical Storm Tracking
New forecast layout! Learn more

10-Day Weather Forecast

Advertisements
Track Severe Weather on mobile